Aeroporto :
LOGIN :

Iscrizione | Disclaimer

   EN    FR    IT 

 










Sommario :    VFR   VFR Marginale   IFR   IFR Intensivo   IFR Molto Intensivo
Visibilità : 
Base nubi : 
>= 8 km
>= 3000ft
5 / 8 km
1000 / 3000 ft
1500m / 5 km
500 / 1000 ft
800 / 1500m
200 / 500 ft
< 800m
< 200 ft
Simboli :   Temporali  Nebbia  Neve Forte  Precipitazioni Forti  Vento > 20 kt
SIGMETs :   Varie  Temporali  Ghiacco  Turbolenza  Onda orograficha  Ceneri Vulcaniche






- Altitudine del aeroporto : 465 ft
- Codice IATA : OMR


LROD - Oradea International

ULTIMO METAR :
  • 011300Z 12006KT 090V160 CAVOK 09/M14 Q1019

METARs OBSOLETI :
  • 011230Z 04005KT 350V120 CAVOK 09/M14 Q1020
  • 011200Z 08004KT 360V150 CAVOK 09/M13 Q1020
  • 011130Z 04006KT 340V090 CAVOK 08/M13 Q1021
  • 011100Z 09008KT 050V120 CAVOK 08/M12 Q1021
  • 011030Z 12005KT 050V180 CAVOK 08/M15 Q1021

TAF TAF LROD
Valido dal 01 a 12 ore il 01 a 21 ore UTC


011100Z 0112/0121 07008KT CAVOK



MetMap, La meteo Aeronautica in un colpo d'occhio ! - Copyright ORBIFLY Dicembre 2007 - Disclaimer

ORBIFLY MET'MAP TEAM :

Programmazione e sviluppo : Alexandra Zaïnal
Concezione : Baudouin d'Aumeries
Aiuto per la programmazione : Marc-Olivier Méhu
Supporto tecnico e logistico : Manuel Goepfert
Aiuto per la traduzione : Arnaldo La Scala

Contatto : metmap@orbifly.com




FONTI E CREDITI :

   NOAA